KDLL

Baraboo-Wisconsin Dells Regional Airport

Baraboo, Wisconsin, USA
METAR KDLL 140435Z AUTO 00000KT 10SM CLR M10/M14 A3046 RMK AO2 T11031136
Observed Flight Rules
Nov-14 @ 04:35 UTC (14 minutes ago) Visual Flight Rules
Visibility Clouds
10 miles
  • Clear skies
Temperatures Readings
Current -10°C / 14°F
Dewpoint -14°C / 7°F
Humidity 73%
Altimeter 30.46" Hg
Pressure 1031 hPa
Elevation 299
METAR KDLL 140435Z AUTO 00000KT 10SM CLR M10/M14 A3046 RMK AO2 T11031136
Observed Flight Rules
Nov-14 @ 04:35 UTC
(14 minutes ago)
VFR
Clouds
  • Clear skies
Temperature Dewpoint
-10°C / 14°F -14°C / 7°F
Humidity Altimeter Pressure
73% 30.46" Hg 1031 hPa